Terminal Aerodrome Forecast
Issued by NWS Buffalo, NY

Home | Current Version | Previous Version | Text Only | Print | Product List | Glossary On
Versions: 1 2 3 4 5 6 7 8 9 10 11 12 13 14 15 16 17 18 19 20 21 22 23 24
000
FTUS41 KBUF 200540
TAFART
TAF
KART 200540Z 2006/2106 30015G25KT P6SM VCSH SCT025 BKN040
     FM201200 32010KT P6SM SCT025 BKN040
     FM201600 26012G22KT P6SM BKN025
     FM202100 27012G24KT P6SM BKN040
     FM210000 25010KT P6SM VCSH BKN040=

USA.gov is the U.S. government's official web portal to all federal, state and local government web resources and services.